createdAt,value
2018-09-12T00:00:27.245Z,83.84
2018-09-12T00:02:56.494Z,83.55
2018-09-12T00:05:25.745Z,84.49
2018-09-12T00:07:55.151Z,85.04
2018-09-12T00:10:24.414Z,85.58
2018-09-12T00:12:53.697Z,86.18
2018-09-12T00:15:22.973Z,85.93
2018-09-12T00:17:52.230Z,86.53
2018-09-12T00:20:21.487Z,87.35
2018-09-12T00:22:50.736Z,86.71
2018-09-12T00:25:19.914Z,87.14
2018-09-12T00:27:49.206Z,86.80
2018-09-12T00:30:18.434Z,86.26
2018-09-12T00:32:47.701Z,86.83
2018-09-12T00:35:16.912Z,86.63
2018-09-12T00:37:46.295Z,86.95
2018-09-12T00:40:15.638Z,87.45
2018-09-12T00:42:44.941Z,87.19
2018-09-12T00:45:14.309Z,87.06
2018-09-12T00:47:43.602Z,86.69
2018-09-12T00:50:12.886Z,87.22
2018-09-12T00:52:42.151Z,87.96
2018-09-12T00:55:11.474Z,87.92
2018-09-12T00:57:40.722Z,87.67
2018-09-12T01:00:10.013Z,87.19
2018-09-12T01:02:39.454Z,87.55
2018-09-12T01:05:08.760Z,87.32
2018-09-12T01:07:38.022Z,87.56
2018-09-12T01:10:07.438Z,87.47
2018-09-12T01:12:36.706Z,87.19
2018-09-12T01:15:06.080Z,86.74
2018-09-12T01:17:35.363Z,86.71
2018-09-12T01:20:04.683Z,86.08
2018-09-12T01:22:33.982Z,85.64
2018-09-12T01:25:03.406Z,86.20
2018-09-12T01:27:32.789Z,87.40
2018-09-12T01:30:02.152Z,87.14
2018-09-12T01:32:31.475Z,87.78
2018-09-12T01:35:00.835Z,88.04
2018-09-12T01:37:30.171Z,88.94
2018-09-12T01:39:59.605Z,88.48
2018-09-12T01:42:28.960Z,89.13
2018-09-12T01:44:58.322Z,90.06
2018-09-12T01:47:27.725Z,89.72
2018-09-12T01:49:57.061Z,90.63
2018-09-12T01:52:26.530Z,90.77
2018-09-12T01:54:55.960Z,91.19
2018-09-12T01:57:25.310Z,90.78
2018-09-12T01:59:54.734Z,90.36
2018-09-12T02:02:24.132Z,89.67
2018-09-12T02:04:53.825Z,90.17
2018-09-12T02:07:23.222Z,90.06
2018-09-12T02:09:52.636Z,89.77
2018-09-12T02:12:21.956Z,89.76
2018-09-12T02:14:51.340Z,89.59
2018-09-12T02:17:20.669Z,90.17
2018-09-12T02:19:50.111Z,89.30
2018-09-12T02:22:19.480Z,88.20
2018-09-12T02:24:48.775Z,86.83
2018-09-12T02:27:18.120Z,87.12
2018-09-12T02:29:47.463Z,87.16
2018-09-12T02:32:16.809Z,86.92
2018-09-12T02:34:46.163Z,86.34
2018-09-12T02:37:22.211Z,85.65
2018-09-12T02:39:51.693Z,85.49
2018-09-12T02:42:21.063Z,85.11
2018-09-12T02:44:50.441Z,85.15
2018-09-12T02:47:25.140Z,84.79
2018-09-12T02:49:54.621Z,84.66
2018-09-12T02:52:23.981Z,84.72
2018-09-12T02:54:53.555Z,85.30
2018-09-12T02:57:23.017Z,84.61
2018-09-12T02:59:52.357Z,84.91
2018-09-12T03:02:21.730Z,85.43
2018-09-12T03:04:51.227Z,85.99
2018-09-12T03:07:20.668Z,86.86
2018-09-12T03:09:50.007Z,88.06
2018-09-12T03:12:19.419Z,88.56
2018-09-12T03:14:48.787Z,89.04
2018-09-12T03:17:18.139Z,89.77
2018-09-12T03:19:47.396Z,90.56
2018-09-12T03:22:16.722Z,90.65
2018-09-12T03:24:45.999Z,90.78
2018-09-12T03:27:15.416Z,91.79
2018-09-12T03:29:44.697Z,92.36
2018-09-12T03:32:14.118Z,92.62
2018-09-12T03:34:43.469Z,93.26
2018-09-12T03:37:12.858Z,93.32
2018-09-12T03:39:42.048Z,93.66
2018-09-12T03:42:11.373Z,93.70
2018-09-12T03:44:40.626Z,94.64
2018-09-12T03:47:09.957Z,95.52
2018-09-12T03:49:39.367Z,95.33
2018-09-12T03:52:08.661Z,95.51
2018-09-12T03:54:37.912Z,95.55
2018-09-12T03:57:07.366Z,95.33
2018-09-12T03:59:37.749Z,96.48
2018-09-12T04:02:07.178Z,96.38
2018-09-12T04:04:36.513Z,96.63
2018-09-12T04:07:05.845Z,96.79
2018-09-12T04:09:35.121Z,96.97
2018-09-12T04:12:04.437Z,98.29
2018-09-12T04:14:33.744Z,98.79
2018-09-12T04:17:03.128Z,98.00
2018-09-12T04:19:32.355Z,97.59
2018-09-12T04:22:01.667Z,97.72
2018-09-12T04:24:30.968Z,98.31
2018-09-12T04:27:00.283Z,98.63
2018-09-12T04:29:29.617Z,98.82
2018-09-12T04:31:58.932Z,98.71
2018-09-12T04:34:28.230Z,99.50
2018-09-12T04:36:57.535Z,99.30
2018-09-12T04:39:26.851Z,99.12
2018-09-12T04:41:56.126Z,99.40
2018-09-12T04:44:25.522Z,99.29
2018-09-12T04:46:54.842Z,100.00
2018-09-12T04:49:24.240Z,100.00
2018-09-12T04:51:53.593Z,100.00
2018-09-12T04:54:22.960Z,99.58
2018-09-12T04:56:52.142Z,99.86
2018-09-12T04:59:21.466Z,100.00
2018-09-12T05:01:50.743Z,99.03
2018-09-12T05:04:20.088Z,99.67
2018-09-12T05:06:49.341Z,99.34
2018-09-12T05:09:18.665Z,99.37
2018-09-12T05:11:47.878Z,98.98
2018-09-12T05:14:17.187Z,98.23
2018-09-12T05:16:46.539Z,98.13
2018-09-12T05:19:15.801Z,98.29
2018-09-12T05:21:45.002Z,98.43
2018-09-12T05:24:14.242Z,98.20
2018-09-12T05:26:43.502Z,98.55
2018-09-12T05:29:12.785Z,96.98
2018-09-12T05:31:42.015Z,96.44
2018-09-12T05:34:11.280Z,95.59
2018-09-12T05:36:40.545Z,94.67
2018-09-12T05:39:11.628Z,94.60
2018-09-12T05:41:40.916Z,94.38
2018-09-12T05:44:10.325Z,93.58
2018-09-12T05:46:39.642Z,93.01
2018-09-12T05:49:09.038Z,92.18
2018-09-12T05:51:38.370Z,92.29
2018-09-12T05:54:07.683Z,91.57
2018-09-12T05:56:36.998Z,91.10
2018-09-12T05:59:06.547Z,90.73
2018-09-12T06:01:35.838Z,89.63
2018-09-12T06:04:05.105Z,89.20
2018-09-12T06:06:34.476Z,88.30
2018-09-12T06:09:04.862Z,87.49
2018-09-12T06:11:34.154Z,86.43
2018-09-12T06:14:03.603Z,85.81
2018-09-12T06:16:32.844Z,85.17
2018-09-12T06:19:02.134Z,84.58
2018-09-12T06:21:31.474Z,83.96
2018-09-12T06:24:00.773Z,83.79
2018-09-12T06:26:30.063Z,83.46
2018-09-12T06:28:59.341Z,82.79
2018-09-12T06:31:28.670Z,82.15
2018-09-12T06:33:57.923Z,81.29
2018-09-12T06:36:27.274Z,80.72
2018-09-12T06:38:56.565Z,80.15
2018-09-12T06:41:28.737Z,78.84
2018-09-12T06:43:58.035Z,78.38
2018-09-12T06:46:27.363Z,78.05
2018-09-12T06:48:56.618Z,77.45
2018-09-12T06:51:25.977Z,77.11
2018-09-12T06:53:55.345Z,76.35
2018-09-12T06:56:24.931Z,75.16
2018-09-12T06:58:54.219Z,74.39
2018-09-12T07:01:23.637Z,74.02
2018-09-12T07:03:53.057Z,73.78
2018-09-12T07:06:22.418Z,72.32
2018-09-12T07:08:51.761Z,71.10
2018-09-12T07:11:21.054Z,71.89
2018-09-12T07:13:50.417Z,71.19
2018-09-12T07:16:19.734Z,71.28
2018-09-12T07:18:48.981Z,70.26
2018-09-12T07:21:18.426Z,69.81
2018-09-12T07:23:47.742Z,69.26
2018-09-12T07:26:17.048Z,68.34
2018-09-12T07:28:46.316Z,67.35
2018-09-12T07:31:15.581Z,67.19
2018-09-12T07:33:44.892Z,66.30
2018-09-12T07:36:14.287Z,65.96
2018-09-12T07:38:43.710Z,65.55
2018-09-12T07:41:13.025Z,65.06
2018-09-12T07:43:42.315Z,65.10
2018-09-12T07:46:11.666Z,64.03
2018-09-12T07:48:40.978Z,64.59
2018-09-12T07:51:10.255Z,64.05
2018-09-12T07:53:39.556Z,63.22
2018-09-12T07:56:09.333Z,63.02
2018-09-12T07:58:38.598Z,61.62
2018-09-12T08:01:07.867Z,61.00
2018-09-12T08:03:37.174Z,60.98
2018-09-12T08:06:06.667Z,60.58
2018-09-12T08:08:36.026Z,59.81
2018-09-12T08:11:05.494Z,59.52
2018-09-12T08:13:34.908Z,59.39
2018-09-12T08:16:04.218Z,58.67
2018-09-12T08:18:33.619Z,58.63
2018-09-12T08:21:02.901Z,57.90
2018-09-12T08:23:32.177Z,57.51
2018-09-12T08:26:01.532Z,57.59
2018-09-12T08:28:30.796Z,57.41
2018-09-12T08:31:00.142Z,57.12
2018-09-12T08:33:29.433Z,56.65
2018-09-12T08:35:58.786Z,56.17
2018-09-12T08:38:28.088Z,56.33
2018-09-12T08:40:57.431Z,55.38
2018-09-12T08:43:26.862Z,55.44
2018-09-12T08:45:56.189Z,55.09
2018-09-12T08:48:25.621Z,54.20
2018-09-12T08:50:54.943Z,53.60
2018-09-12T08:53:24.276Z,53.45
2018-09-12T08:55:53.586Z,53.95
2018-09-12T08:58:22.971Z,53.44
2018-09-12T09:00:52.357Z,52.51
2018-09-12T09:03:21.722Z,52.17
2018-09-12T09:05:51.122Z,51.62
2018-09-12T09:08:20.463Z,51.79
2018-09-12T09:10:49.795Z,51.00
2018-09-12T09:13:19.186Z,50.30
2018-09-12T09:15:48.530Z,49.24
2018-09-12T09:18:17.818Z,49.16
2018-09-12T09:20:47.141Z,49.66
2018-09-12T09:23:16.531Z,48.68
2018-09-12T09:25:45.922Z,48.80
2018-09-12T09:28:15.188Z,47.85
2018-09-12T09:30:44.535Z,47.16
2018-09-12T09:33:13.830Z,48.16
2018-09-12T09:35:43.262Z,47.37
2018-09-12T09:38:12.471Z,46.95
2018-09-12T09:40:41.755Z,45.54
2018-09-12T09:43:11.044Z,46.10
2018-09-12T09:45:40.347Z,46.15
2018-09-12T09:48:09.656Z,45.08
2018-09-12T09:50:41.375Z,43.93
2018-09-12T09:53:11.937Z,44.24
2018-09-12T09:55:41.610Z,42.53
2018-09-12T09:58:10.930Z,44.87
2018-09-12T10:00:45.495Z,44.83
2018-09-12T10:03:19.877Z,44.21
2018-09-12T10:05:54.571Z,44.24
2018-09-12T10:08:28.907Z,43.72
2018-09-12T10:10:58.682Z,43.58
2018-09-12T10:13:28.003Z,41.68
2018-09-12T10:15:57.378Z,39.68
2018-09-12T10:18:26.702Z,39.69
2018-09-12T10:20:55.967Z,39.03
2018-09-12T10:23:25.602Z,39.47
2018-09-12T10:25:54.893Z,38.20
2018-09-12T10:28:24.156Z,39.23
2018-09-12T10:30:53.453Z,39.89
2018-09-12T10:33:22.749Z,39.07
2018-09-12T10:35:52.134Z,39.35
2018-09-12T10:38:21.373Z,38.81
2018-09-12T10:40:50.669Z,38.45
2018-09-12T10:43:19.910Z,38.35
2018-09-12T10:45:49.287Z,37.47
2018-09-12T10:48:18.592Z,38.08
2018-09-12T10:50:47.964Z,37.51
2018-09-12T10:53:17.225Z,37.73
2018-09-12T10:55:47.526Z,38.19
2018-09-12T10:58:16.781Z,37.28
2018-09-12T11:00:46.061Z,37.98
2018-09-12T11:03:15.335Z,37.47
2018-09-12T11:05:44.589Z,37.33
2018-09-12T11:08:13.839Z,37.65
2018-09-12T11:10:43.116Z,37.90
2018-09-12T11:13:12.358Z,38.32
2018-09-12T11:15:41.664Z,37.08
2018-09-12T11:18:12.435Z,37.01
2018-09-12T11:20:41.744Z,37.23
2018-09-12T11:23:10.978Z,37.05
2018-09-12T11:25:42.311Z,36.32
2018-09-12T11:28:12.046Z,34.24
2018-09-12T11:30:41.322Z,34.09
2018-09-12T11:33:10.599Z,33.80
2018-09-12T11:35:39.834Z,34.59
2018-09-12T11:38:09.076Z,34.62
2018-09-12T11:40:38.300Z,35.16
2018-09-12T11:43:07.538Z,34.64
2018-09-12T11:45:36.738Z,34.88
2018-09-12T11:48:06.042Z,33.53
2018-09-12T11:50:35.363Z,33.41
2018-09-12T11:53:04.682Z,33.19
2018-09-12T11:55:33.987Z,32.40
2018-09-12T11:58:03.226Z,32.72
2018-09-12T12:00:32.503Z,33.20
2018-09-12T12:03:01.842Z,33.28
2018-09-12T12:05:31.158Z,33.45
2018-09-12T12:08:00.575Z,33.30
2018-09-12T12:10:29.892Z,32.85
2018-09-12T12:12:59.251Z,32.92
2018-09-12T12:15:28.624Z,32.59
2018-09-12T12:17:57.991Z,33.23
2018-09-12T12:20:27.271Z,33.39
2018-09-12T12:22:56.947Z,32.94
2018-09-12T12:25:26.170Z,32.97
2018-09-12T12:27:55.734Z,33.25
2018-09-12T12:30:25.135Z,32.75
2018-09-12T12:32:54.415Z,33.15
2018-09-12T12:35:23.733Z,33.08
2018-09-12T12:37:56.481Z,32.94
2018-09-12T12:40:25.844Z,32.96
2018-09-12T12:42:57.130Z,32.22
2018-09-12T12:45:26.378Z,32.31
2018-09-12T12:47:55.621Z,33.84
2018-09-12T12:50:24.914Z,33.85
2018-09-12T12:52:54.199Z,33.28
2018-09-12T12:55:24.849Z,33.06
2018-09-12T12:57:54.283Z,33.33
2018-09-12T13:00:24.625Z,34.04
2018-09-12T13:02:53.979Z,33.67
2018-09-12T13:05:23.226Z,34.02
2018-09-12T13:07:52.508Z,34.43
2018-09-12T13:10:21.768Z,34.13
2018-09-12T13:12:51.050Z,34.24
2018-09-12T13:15:20.447Z,33.92
2018-09-12T13:17:49.701Z,33.29
2018-09-12T13:20:18.953Z,33.83
2018-09-12T13:22:48.215Z,33.75
2018-09-12T13:25:19.444Z,33.29
2018-09-12T13:27:48.719Z,34.14
2018-09-12T13:30:17.893Z,33.77
2018-09-12T13:32:47.158Z,34.22
2018-09-12T13:35:16.398Z,33.76
2018-09-12T13:37:45.682Z,33.33
2018-09-12T13:40:14.974Z,32.59
2018-09-12T13:42:44.222Z,33.11
2018-09-12T13:45:13.518Z,33.23
2018-09-12T13:47:45.107Z,32.77
2018-09-12T13:50:16.633Z,33.65
2018-09-12T13:52:46.792Z,33.36
2018-09-12T13:55:16.093Z,33.49
2018-09-12T13:57:45.423Z,33.39
2018-09-12T14:00:14.755Z,33.04
2018-09-12T14:02:44.139Z,32.97
2018-09-12T14:05:13.457Z,33.13
2018-09-12T14:07:42.695Z,33.73
2018-09-12T14:10:11.969Z,33.21
2018-09-12T14:12:41.250Z,32.96
2018-09-12T14:15:13.794Z,33.34
2018-09-12T14:17:43.078Z,34.19
2018-09-12T14:20:12.384Z,33.75
2018-09-12T14:22:41.838Z,32.92
2018-09-12T14:25:11.220Z,32.80
2018-09-12T14:27:40.402Z,33.00
2018-09-12T14:30:09.730Z,33.37
2018-09-12T14:32:38.976Z,34.55
2018-09-12T14:35:08.262Z,34.27
2018-09-12T14:37:37.686Z,34.13
2018-09-12T14:40:07.225Z,34.26
2018-09-12T14:42:36.459Z,33.98
2018-09-12T14:45:05.910Z,34.08
2018-09-12T14:47:35.131Z,34.09
2018-09-12T14:50:04.401Z,35.02
2018-09-12T14:52:33.741Z,34.57
2018-09-12T14:55:03.039Z,33.74
2018-09-12T14:57:32.316Z,34.12
2018-09-12T15:00:01.618Z,33.69
2018-09-12T15:02:30.872Z,34.31
2018-09-12T15:05:00.182Z,35.09
2018-09-12T15:07:29.441Z,35.06
2018-09-12T15:09:58.757Z,34.31
2018-09-12T15:12:28.051Z,34.09
2018-09-12T15:14:57.357Z,34.26
2018-09-12T15:17:26.658Z,33.06
2018-09-12T15:19:55.944Z,32.88
2018-09-12T15:22:25.222Z,33.23
2018-09-12T15:24:54.465Z,32.58
2018-09-12T15:27:23.769Z,34.03
2018-09-12T15:29:53.014Z,33.42
2018-09-12T15:32:22.256Z,34.14
2018-09-12T15:34:51.461Z,34.17
2018-09-12T15:37:20.739Z,34.51
2018-09-12T15:39:50.019Z,34.74
2018-09-12T15:42:19.338Z,35.12
2018-09-12T15:44:48.632Z,35.63
2018-09-12T15:47:17.996Z,35.32
2018-09-12T15:49:47.202Z,35.85
2018-09-12T15:52:16.471Z,36.41
2018-09-12T15:54:45.741Z,37.50
2018-09-12T15:57:15.022Z,37.00
2018-09-12T15:59:44.270Z,37.11
2018-09-12T16:02:13.873Z,37.27
2018-09-12T16:04:43.185Z,37.73
2018-09-12T16:07:12.464Z,38.89
2018-09-12T16:09:41.762Z,38.70
2018-09-12T16:12:11.092Z,39.16
2018-09-12T16:14:40.446Z,39.18
2018-09-12T16:17:09.731Z,39.21
2018-09-12T16:19:38.998Z,40.08
2018-09-12T16:22:08.236Z,40.19
2018-09-12T16:24:37.471Z,40.61
2018-09-12T16:27:06.740Z,40.39
2018-09-12T16:29:35.973Z,39.73
2018-09-12T16:32:05.205Z,39.65
2018-09-12T16:34:34.439Z,38.77
2018-09-12T16:37:03.840Z,39.49
2018-09-12T16:39:33.175Z,39.85
2018-09-12T16:42:02.645Z,39.24
2018-09-12T16:44:31.949Z,39.28
2018-09-12T16:47:01.241Z,39.31
2018-09-12T16:49:30.358Z,39.17
2018-09-12T16:51:59.648Z,39.94
2018-09-12T16:54:28.928Z,40.34
2018-09-12T16:56:58.222Z,40.01
2018-09-12T16:59:27.504Z,40.40
2018-09-12T17:01:57.175Z,41.16
2018-09-12T17:04:26.491Z,41.72
2018-09-12T17:06:56.195Z,41.94
2018-09-12T17:09:25.501Z,42.39
2018-09-12T17:11:54.803Z,42.25
2018-09-12T17:14:24.205Z,42.50
2018-09-12T17:16:53.907Z,41.47
2018-09-12T17:19:23.234Z,41.53
2018-09-12T17:21:52.662Z,42.28
2018-09-12T17:24:22.020Z,43.02
2018-09-12T17:26:51.344Z,43.74
2018-09-12T17:29:20.588Z,44.32
2018-09-12T17:31:49.893Z,44.45
2018-09-12T17:34:19.200Z,44.81
2018-09-12T17:36:48.514Z,45.57
2018-09-12T17:39:17.796Z,46.21
2018-09-12T17:41:47.046Z,46.61
2018-09-12T17:44:16.311Z,47.51
2018-09-12T17:46:45.593Z,48.21
2018-09-12T17:49:14.871Z,50.26
2018-09-12T17:51:44.194Z,51.00
2018-09-12T17:54:13.489Z,52.30
2018-09-12T17:56:42.799Z,53.01
2018-09-12T17:59:12.346Z,53.61
2018-09-12T18:01:41.591Z,53.99
2018-09-12T18:04:10.845Z,54.57
2018-09-12T18:06:40.101Z,54.72
2018-09-12T18:09:10.236Z,55.47
2018-09-12T18:11:39.478Z,55.50
2018-09-12T18:14:08.788Z,55.80
2018-09-12T18:16:38.066Z,56.75
2018-09-12T18:19:07.777Z,56.94
2018-09-12T18:21:37.139Z,57.30
2018-09-12T18:24:06.561Z,57.35
2018-09-12T18:26:35.920Z,58.07
2018-09-12T18:29:05.330Z,58.30
2018-09-12T18:31:34.581Z,58.83
2018-09-12T18:34:03.926Z,59.01
2018-09-12T18:36:33.191Z,59.74
2018-09-12T18:39:02.469Z,59.85
2018-09-12T18:41:31.723Z,60.01
2018-09-12T18:44:01.003Z,60.21
2018-09-12T18:46:31.212Z,60.52
2018-09-12T18:49:00.477Z,60.38
2018-09-12T18:51:29.762Z,62.04
2018-09-12T18:53:59.019Z,61.36
2018-09-12T18:56:28.483Z,62.27
2018-09-12T18:58:57.794Z,62.27
2018-09-12T19:01:28.187Z,62.19
2018-09-12T19:03:58.529Z,62.76
2018-09-12T19:06:27.919Z,62.02
2018-09-12T19:08:57.345Z,62.12
2018-09-12T19:11:26.726Z,61.81
2018-09-12T19:13:56.014Z,62.15
2018-09-12T19:16:25.284Z,62.71
2018-09-12T19:18:54.538Z,63.25
2018-09-12T19:21:23.902Z,63.37
2018-09-12T19:23:53.101Z,63.18
2018-09-12T19:26:22.387Z,63.26
2018-09-12T19:28:53.072Z,63.34
2018-09-12T19:31:22.441Z,63.42
2018-09-12T19:33:54.241Z,63.83
2018-09-12T19:36:30.966Z,63.51
2018-09-12T19:39:00.486Z,63.61
2018-09-12T19:41:32.522Z,63.51
2018-09-12T19:44:01.921Z,64.00
2018-09-12T19:46:31.220Z,63.90
2018-09-12T19:49:00.603Z,63.93
2018-09-12T19:51:29.923Z,64.76
2018-09-12T19:53:59.266Z,65.27
2018-09-12T19:56:28.572Z,65.71
2018-09-12T19:58:57.830Z,66.08
2018-09-12T20:01:27.248Z,65.27
2018-09-12T20:03:56.531Z,65.52
2018-09-12T20:06:25.859Z,65.72
2018-09-12T20:08:55.119Z,65.42
2018-09-12T20:11:24.517Z,66.19
2018-09-12T20:13:53.838Z,66.03
2018-09-12T20:16:23.195Z,65.45
2018-09-12T20:18:53.294Z,63.46
2018-09-12T20:21:22.623Z,60.24
2018-09-12T20:23:52.051Z,60.30
2018-09-12T20:26:21.327Z,62.68
2018-09-12T20:28:51.432Z,65.95
2018-09-12T20:31:21.926Z,70.99
2018-09-12T20:33:51.268Z,74.75
2018-09-12T20:36:20.557Z,77.79
2018-09-12T20:38:49.920Z,81.47
2018-09-12T20:41:19.337Z,84.71
2018-09-12T20:43:48.676Z,86.81
2018-09-12T20:46:18.312Z,89.26
2018-09-12T20:48:47.662Z,90.93
2018-09-12T20:51:17.002Z,90.45
2018-09-12T20:53:46.227Z,89.31
2018-09-12T20:56:15.729Z,89.98
2018-09-12T20:58:45.263Z,90.45
2018-09-12T21:01:14.505Z,90.82
2018-09-12T21:03:43.800Z,92.29
2018-09-12T21:06:13.257Z,92.36
2018-09-12T21:08:42.624Z,94.90
2018-09-12T21:11:12.033Z,94.02
2018-09-12T21:13:41.445Z,93.82
2018-09-12T21:16:10.849Z,92.20
2018-09-12T21:18:40.229Z,91.78
2018-09-12T21:21:09.518Z,89.77
2018-09-12T21:23:39.055Z,90.31
2018-09-12T21:26:08.414Z,90.91
2018-09-12T21:28:38.547Z,90.94
2018-09-12T21:31:07.890Z,91.70
2018-09-12T21:33:37.339Z,92.15
2018-09-12T21:36:06.683Z,91.78
2018-09-12T21:38:35.974Z,89.03
2018-09-12T21:41:05.430Z,88.03
2018-09-12T21:43:34.764Z,90.00
2018-09-12T21:46:03.995Z,89.58
2018-09-12T21:48:33.318Z,90.61
2018-09-12T21:51:02.613Z,92.23
2018-09-12T21:53:31.949Z,90.34
2018-09-12T21:56:01.214Z,92.72
2018-09-12T21:58:30.525Z,93.71
2018-09-12T22:01:00.122Z,94.13
2018-09-12T22:03:29.381Z,94.91
2018-09-12T22:05:58.639Z,93.99
2018-09-12T22:08:27.966Z,94.62
2018-09-12T22:10:57.310Z,95.88
2018-09-12T22:13:26.801Z,95.33
2018-09-12T22:15:56.270Z,94.95
2018-09-12T22:18:25.597Z,96.15
2018-09-12T22:20:54.936Z,97.73
2018-09-12T22:23:24.225Z,97.93
2018-09-12T22:25:53.510Z,100.00
2018-09-12T22:28:22.856Z,100.00
2018-09-12T22:30:52.103Z,100.00
2018-09-12T22:33:21.539Z,100.00
2018-09-12T22:35:50.818Z,100.00
2018-09-12T22:38:20.120Z,100.00
2018-09-12T22:40:49.426Z,99.22
2018-09-12T22:43:18.683Z,100.00
2018-09-12T22:45:47.962Z,100.00
2018-09-12T22:48:17.345Z,100.00
2018-09-12T22:50:46.662Z,100.00
2018-09-12T22:53:15.972Z,100.00
2018-09-12T22:55:45.317Z,100.00
2018-09-12T22:58:14.673Z,100.00
2018-09-12T23:00:43.986Z,100.00
2018-09-12T23:03:13.394Z,100.00
2018-09-12T23:05:42.727Z,100.00
2018-09-12T23:08:12.162Z,100.00
2018-09-12T23:10:41.499Z,100.00
2018-09-12T23:13:11.067Z,100.00
2018-09-12T23:15:40.370Z,100.00
2018-09-12T23:18:09.682Z,100.00
2018-09-12T23:20:39.023Z,100.00
2018-09-12T23:23:08.342Z,100.00
2018-09-12T23:25:37.626Z,100.00
2018-09-12T23:28:06.966Z,100.00
2018-09-12T23:30:36.271Z,100.00
2018-09-12T23:33:05.554Z,100.00
2018-09-12T23:35:34.796Z,100.00
2018-09-12T23:38:04.785Z,100.00
2018-09-12T23:40:34.103Z,100.00
2018-09-12T23:43:03.398Z,100.00
2018-09-12T23:45:32.724Z,100.00
2018-09-12T23:48:01.993Z,100.00
2018-09-12T23:50:31.287Z,100.00
2018-09-12T23:53:00.646Z,100.00
2018-09-12T23:55:29.971Z,100.00
2018-09-12T23:57:59.294Z,100.00
